createdAt,value
2017-09-07T00:01:05.313Z,7.33
2017-09-07T00:03:32.711Z,14.13
2017-09-07T00:06:00.114Z,15.07
2017-09-07T00:08:27.510Z,8.27
2017-09-07T00:10:54.902Z,11.20
2017-09-07T00:13:22.299Z,9.27
2017-09-07T00:15:49.702Z,12.20
2017-09-07T00:18:17.099Z,12.93
2017-09-07T00:20:44.503Z,15.63
2017-09-07T00:23:11.882Z,14.23
2017-09-07T00:25:39.296Z,29.70
2017-09-07T00:28:06.679Z,9.07
2017-09-07T00:30:34.170Z,20.40
2017-09-07T00:33:01.562Z,18.37
2017-09-07T00:35:28.961Z,12.80
2017-09-07T00:37:58.351Z,11.20
2017-09-07T00:40:25.847Z,25.20
2017-09-07T00:42:53.253Z,18.50
2017-09-07T00:45:20.642Z,14.60
2017-09-07T00:47:48.070Z,23.00
2017-09-07T00:50:15.458Z,19.43
2017-09-07T00:52:42.858Z,12.50
2017-09-07T00:55:10.262Z,34.93
2017-09-07T00:57:37.663Z,15.73
2017-09-07T01:00:05.065Z,23.47
2017-09-07T01:02:32.462Z,25.70
2017-09-07T01:04:59.846Z,23.10
2017-09-07T01:07:27.261Z,30.97
2017-09-07T01:09:54.642Z,15.50
2017-09-07T01:12:22.050Z,27.63
2017-09-07T01:14:49.438Z,12.57
2017-09-07T01:17:16.858Z,20.40
2017-09-07T01:19:44.335Z,19.57
2017-09-07T01:22:11.789Z,27.30
2017-09-07T01:24:39.130Z,27.00
2017-09-07T01:27:06.534Z,16.80
2017-09-07T01:29:33.936Z,19.23
2017-09-07T01:32:01.325Z,29.03
2017-09-07T01:34:28.714Z,21.43
2017-09-07T01:36:56.111Z,24.90
2017-09-07T01:39:23.499Z,24.30
2017-09-07T01:41:50.890Z,37.57
2017-09-07T01:44:18.296Z,19.50
2017-09-07T01:46:45.682Z,17.27
2017-09-07T01:49:13.086Z,29.33
2017-09-07T01:51:40.475Z,22.80
2017-09-07T01:56:35.127Z,15.40
2017-09-07T01:59:02.534Z,21.23
2017-09-07T02:01:29.969Z,24.70
2017-09-07T02:03:57.379Z,40.00
2017-09-07T02:06:24.872Z,24.13
2017-09-07T02:08:52.274Z,28.43
2017-09-07T02:11:19.674Z,16.10
2017-09-07T02:13:47.081Z,25.83
2017-09-07T02:16:14.471Z,21.63
2017-09-07T02:18:41.867Z,24.20
2017-09-07T02:21:09.277Z,18.10
2017-09-07T02:23:36.662Z,26.67
2017-09-07T02:26:04.074Z,21.83
2017-09-07T02:28:31.511Z,22.60
2017-09-07T02:30:58.875Z,22.40
2017-09-07T02:33:26.291Z,27.37
2017-09-07T02:35:53.668Z,16.30
2017-09-07T02:38:21.094Z,20.47
2017-09-07T02:40:48.490Z,23.40
2017-09-07T02:43:15.893Z,18.73
2017-09-07T02:45:43.294Z,19.00
2017-09-07T02:48:10.691Z,15.93
2017-09-07T02:50:38.091Z,31.10
2017-09-07T02:53:05.486Z,17.40
2017-09-07T02:55:32.885Z,22.23
2017-09-07T02:58:00.300Z,22.57
2017-09-07T03:00:27.702Z,31.47
2017-09-07T03:02:55.094Z,26.00
2017-09-07T03:05:22.507Z,15.43
2017-09-07T03:07:49.894Z,29.43
2017-09-07T03:10:17.302Z,24.27
2017-09-07T03:12:44.770Z,21.77
2017-09-07T03:15:12.166Z,13.63
2017-09-07T03:17:39.562Z,14.00
2017-09-07T03:20:06.958Z,18.80
2017-09-07T03:22:34.352Z,18.00
2017-09-07T03:25:01.748Z,17.77
2017-09-07T03:27:29.134Z,7.03
2017-09-07T03:29:56.530Z,15.87
2017-09-07T03:32:23.926Z,19.83
2017-09-07T03:34:51.327Z,15.13
2017-09-07T03:37:18.711Z,19.13
2017-09-07T03:39:46.102Z,18.40
2017-09-07T03:42:13.502Z,15.00
2017-09-07T03:44:40.895Z,32.13
2017-09-07T03:47:08.308Z,13.63
2017-09-07T03:49:35.690Z,16.57
2017-09-07T03:52:03.162Z,16.53
2017-09-07T03:54:30.556Z,16.90
2017-09-07T03:56:57.982Z,21.10
2017-09-07T03:59:25.378Z,16.53
2017-09-07T04:01:52.804Z,17.40
2017-09-07T04:04:20.190Z,15.87
2017-09-07T04:06:47.603Z,14.23
2017-09-07T04:09:14.991Z,11.90
2017-09-07T04:11:42.391Z,21.83
2017-09-07T04:14:09.794Z,14.03
2017-09-07T04:16:37.192Z,19.53
2017-09-07T04:19:04.586Z,8.50
2017-09-07T04:21:31.974Z,15.63
2017-09-07T04:23:59.374Z,11.97
2017-09-07T04:26:26.830Z,14.50
2017-09-07T04:28:54.214Z,16.20
2017-09-07T04:31:21.619Z,21.77
2017-09-07T04:33:49.001Z,10.47
2017-09-07T04:36:16.405Z,10.73
2017-09-07T04:38:43.843Z,12.70
2017-09-07T04:41:11.210Z,14.27
2017-09-07T04:43:38.610Z,20.00
2017-09-07T04:46:06.002Z,15.07
2017-09-07T04:48:33.411Z,23.57
2017-09-07T04:51:00.816Z,15.07
2017-09-07T04:53:28.201Z,12.07
2017-09-07T04:55:55.598Z,13.17
2017-09-07T04:58:23.062Z,12.00
2017-09-07T05:00:50.547Z,11.20
2017-09-07T05:03:17.971Z,11.10
2017-09-07T05:05:45.431Z,16.07
2017-09-07T05:08:12.851Z,14.80
2017-09-07T05:10:40.259Z,17.07
2017-09-07T05:13:07.638Z,15.73
2017-09-07T05:15:35.038Z,10.97
2017-09-07T05:18:02.425Z,14.63
2017-09-07T05:20:29.827Z,28.30
2017-09-07T05:22:57.314Z,17.03
2017-09-07T05:25:24.712Z,17.53
2017-09-07T05:27:52.122Z,15.30
2017-09-07T05:30:19.524Z,13.80
2017-09-07T05:32:46.906Z,17.40
2017-09-07T05:35:14.317Z,10.83
2017-09-07T05:37:41.711Z,17.53
2017-09-07T05:40:09.130Z,16.60
2017-09-07T05:42:36.527Z,14.40
2017-09-07T05:45:03.919Z,18.03
2017-09-07T05:47:31.328Z,9.40
2017-09-07T05:49:58.722Z,12.60
2017-09-07T05:52:26.289Z,14.13
2017-09-07T05:54:53.690Z,16.30
2017-09-07T05:57:21.070Z,23.43
2017-09-07T05:59:48.463Z,12.30
2017-09-07T06:02:15.882Z,11.43
2017-09-07T06:04:43.296Z,13.50
2017-09-07T06:07:10.706Z,12.70
2017-09-07T06:09:38.091Z,10.83
2017-09-07T06:12:05.508Z,14.10
2017-09-07T06:14:32.891Z,7.60
2017-09-07T06:17:00.295Z,13.23
2017-09-07T06:19:27.693Z,7.20
2017-09-07T06:21:55.098Z,11.33
2017-09-07T06:24:22.505Z,10.20
2017-09-07T06:26:49.890Z,12.13
2017-09-07T06:29:17.292Z,6.10
2017-09-07T06:31:44.877Z,12.73
2017-09-07T06:34:12.265Z,11.73
2017-09-07T06:36:39.691Z,11.10
2017-09-07T06:41:40.818Z,12.83
2017-09-07T06:44:08.206Z,11.67
2017-09-07T06:46:35.594Z,9.60
2017-09-07T06:49:02.986Z,10.20
2017-09-07T06:51:30.401Z,6.47
2017-09-07T06:53:57.823Z,9.40
2017-09-07T06:56:25.211Z,7.50
2017-09-07T06:58:52.610Z,9.47
2017-09-07T07:01:19.995Z,8.40
2017-09-07T07:03:47.390Z,8.17
2017-09-07T07:06:14.774Z,13.13
2017-09-07T07:08:42.162Z,6.10
2017-09-07T07:11:09.547Z,13.50
2017-09-07T07:13:36.954Z,10.70
2017-09-07T07:16:04.376Z,7.40
2017-09-07T07:18:31.836Z,5.03
2017-09-07T07:20:59.259Z,8.87
2017-09-07T07:23:26.661Z,10.83
2017-09-07T07:25:54.042Z,7.87
2017-09-07T07:28:21.498Z,9.40
2017-09-07T07:30:48.961Z,7.90
2017-09-07T07:33:16.346Z,5.83
2017-09-07T07:35:43.739Z,13.73
2017-09-07T07:38:11.144Z,7.83
2017-09-07T07:40:38.555Z,10.90
2017-09-07T07:43:05.942Z,7.57
2017-09-07T07:45:33.326Z,4.20
2017-09-07T07:48:00.732Z,5.30
2017-09-07T07:50:28.121Z,8.40
2017-09-07T07:52:55.521Z,5.50
2017-09-07T07:55:22.923Z,4.33
2017-09-07T07:57:50.302Z,5.63
2017-09-07T08:00:17.694Z,7.43
2017-09-07T08:02:45.087Z,10.07
2017-09-07T08:05:12.478Z,7.43
2017-09-07T08:07:39.863Z,9.70
2017-09-07T08:10:07.255Z,5.90
2017-09-07T08:12:34.634Z,5.73
2017-09-07T08:15:02.029Z,5.40
2017-09-07T08:17:29.523Z,6.67
2017-09-07T08:19:56.929Z,4.77
2017-09-07T08:22:24.303Z,4.23
2017-09-07T08:24:51.722Z,6.00
2017-09-07T08:27:19.105Z,7.20
2017-09-07T08:29:46.494Z,6.50
2017-09-07T08:32:13.883Z,6.90
2017-09-07T08:34:41.283Z,5.47
2017-09-07T08:37:08.760Z,9.63
2017-09-07T08:39:36.214Z,4.90
2017-09-07T08:42:03.616Z,12.60
2017-09-07T08:44:31.013Z,10.40
2017-09-07T08:46:58.402Z,8.80
2017-09-07T08:49:25.792Z,10.27
2017-09-07T08:51:53.183Z,8.57
2017-09-07T08:54:20.650Z,4.10
2017-09-07T08:56:48.042Z,9.07
2017-09-07T08:59:15.451Z,5.60
2017-09-07T09:01:42.836Z,4.20
2017-09-07T09:04:10.238Z,11.77
2017-09-07T09:06:37.635Z,10.10
2017-09-07T09:09:05.037Z,7.67
2017-09-07T09:11:32.437Z,10.67
2017-09-07T09:13:59.819Z,8.20
2017-09-07T09:16:27.262Z,10.03
2017-09-07T09:18:54.642Z,6.33
2017-09-07T09:21:22.038Z,8.13
2017-09-07T09:23:49.433Z,11.53
2017-09-07T09:26:16.838Z,5.07
2017-09-07T09:28:44.249Z,6.97
2017-09-07T09:31:11.639Z,10.77
2017-09-07T09:33:39.038Z,11.33
2017-09-07T09:36:06.504Z,10.57
2017-09-07T09:41:25.587Z,9.07
2017-09-07T09:43:52.975Z,9.63
2017-09-07T09:46:20.359Z,5.77
2017-09-07T09:48:47.846Z,9.07
2017-09-07T09:51:15.239Z,10.60
2017-09-07T09:53:42.635Z,9.43
2017-09-07T09:56:10.026Z,15.20
2017-09-07T09:58:37.423Z,8.70
2017-09-07T10:01:04.847Z,7.03
2017-09-07T10:03:32.255Z,11.37
2017-09-07T10:05:59.636Z,5.90
2017-09-07T10:08:27.103Z,19.73
2017-09-07T10:10:54.486Z,6.93
2017-09-07T10:13:21.890Z,10.77
2017-09-07T10:15:49.284Z,5.80
2017-09-07T10:18:16.659Z,9.60
2017-09-07T10:20:44.047Z,6.70
2017-09-07T10:23:11.556Z,8.47
2017-09-07T10:25:38.959Z,5.17
2017-09-07T10:28:06.358Z,9.63
2017-09-07T10:30:33.743Z,4.70
2017-09-07T10:33:01.142Z,10.73
2017-09-07T10:35:28.614Z,8.60
2017-09-07T10:37:56.007Z,7.70
2017-09-07T10:40:23.395Z,7.40
2017-09-07T10:42:50.799Z,7.00
2017-09-07T10:45:18.183Z,11.23
2017-09-07T10:47:45.563Z,8.77
2017-09-07T10:50:12.970Z,10.30
2017-09-07T10:52:40.359Z,4.33
2017-09-07T10:55:07.765Z,7.50
2017-09-07T10:57:35.147Z,6.07
2017-09-07T11:00:02.590Z,6.63
2017-09-07T11:02:29.981Z,4.97
2017-09-07T11:04:57.366Z,5.03
2017-09-07T11:07:24.765Z,5.90
2017-09-07T11:09:52.202Z,10.50
2017-09-07T11:12:19.583Z,9.10
2017-09-07T11:14:46.979Z,9.17
2017-09-07T11:17:14.467Z,15.57
2017-09-07T11:19:41.866Z,10.23
2017-09-07T11:22:09.270Z,9.50
2017-09-07T11:24:36.675Z,7.00
2017-09-07T11:27:04.063Z,13.63
2017-09-07T11:29:31.460Z,10.20
2017-09-07T11:31:58.851Z,6.30
2017-09-07T11:34:26.246Z,9.23
2017-09-07T11:36:53.733Z,16.50
2017-09-07T11:39:21.122Z,12.03
2017-09-07T11:41:48.524Z,10.90
2017-09-07T11:44:15.911Z,11.37
2017-09-07T11:46:43.311Z,10.03
2017-09-07T11:49:10.701Z,6.70
2017-09-07T11:51:38.082Z,8.87
2017-09-07T11:54:05.486Z,17.50
2017-09-07T11:56:32.880Z,13.60
2017-09-07T11:59:00.281Z,23.60
2017-09-07T12:01:27.732Z,7.73
2017-09-07T12:03:55.111Z,9.23
2017-09-07T12:06:22.504Z,7.17
2017-09-07T12:08:49.903Z,10.27
2017-09-07T12:11:17.311Z,12.40
2017-09-07T12:13:44.700Z,6.87
2017-09-07T12:16:12.115Z,9.43
2017-09-07T12:18:39.520Z,7.30
2017-09-07T12:21:06.904Z,9.63
2017-09-07T12:23:34.393Z,13.00
2017-09-07T12:26:01.770Z,11.10
2017-09-07T12:28:29.166Z,7.67
2017-09-07T12:30:56.567Z,5.07
2017-09-07T12:33:23.963Z,7.30
2017-09-07T12:35:51.350Z,4.87
2017-09-07T12:38:18.741Z,7.30
2017-09-07T12:40:46.135Z,10.23
2017-09-07T12:43:13.535Z,6.70
2017-09-07T12:45:40.928Z,14.50
2017-09-07T12:48:08.334Z,4.50
2017-09-07T12:50:35.786Z,11.00
2017-09-07T12:53:03.252Z,11.97
2017-09-07T12:55:30.635Z,11.80
2017-09-07T12:57:58.048Z,6.50
2017-09-07T13:00:25.515Z,8.13
2017-09-07T13:02:52.907Z,6.27
2017-09-07T13:05:20.314Z,10.67
2017-09-07T13:07:47.711Z,6.20
2017-09-07T13:10:15.263Z,5.13
2017-09-07T13:12:42.699Z,6.70
2017-09-07T13:15:10.078Z,6.30
2017-09-07T13:17:37.501Z,6.23
2017-09-07T13:20:05.070Z,5.13
2017-09-07T13:22:32.503Z,7.90
2017-09-07T13:24:59.852Z,5.97
2017-09-07T13:27:27.334Z,3.93
2017-09-07T13:29:54.719Z,9.00
2017-09-07T13:32:22.127Z,11.10
2017-09-07T13:34:49.547Z,6.13
2017-09-07T13:37:16.935Z,6.30
2017-09-07T13:39:44.339Z,17.60
2017-09-07T13:42:11.734Z,12.43
2017-09-07T13:44:39.140Z,11.47
2017-09-07T13:47:06.530Z,12.77
2017-09-07T13:49:33.948Z,12.63
2017-09-07T13:52:01.366Z,8.33
2017-09-07T13:54:28.754Z,23.33
2017-09-07T13:56:56.150Z,17.83
2017-09-07T13:59:23.560Z,9.77
2017-09-07T14:01:51.064Z,13.13
2017-09-07T14:04:18.430Z,7.30
2017-09-07T14:06:45.834Z,6.20
2017-09-07T14:09:13.222Z,4.43
2017-09-07T14:11:40.611Z,6.03
2017-09-07T14:14:07.998Z,8.43
2017-09-07T14:16:35.455Z,6.73
2017-09-07T14:19:02.914Z,8.03
2017-09-07T14:21:30.304Z,7.10
2017-09-07T14:23:57.690Z,10.33
2017-09-07T14:26:25.076Z,7.60
2017-09-07T14:28:52.543Z,6.40
2017-09-07T14:31:19.944Z,6.07
2017-09-07T14:33:47.347Z,5.40
2017-09-07T14:36:14.783Z,8.93
2017-09-07T14:38:42.203Z,6.63
2017-09-07T14:41:09.595Z,5.77
2017-09-07T14:43:36.986Z,10.30
2017-09-07T14:46:04.423Z,12.83
2017-09-07T14:48:31.899Z,7.93
2017-09-07T14:50:59.282Z,6.37
2017-09-07T14:53:26.674Z,7.80
2017-09-07T14:55:54.067Z,7.27
2017-09-07T14:58:21.475Z,7.87
2017-09-07T15:00:48.882Z,7.10
2017-09-07T15:03:16.284Z,7.63
2017-09-07T15:05:43.671Z,4.53
2017-09-07T15:08:11.082Z,9.10
2017-09-07T15:10:38.466Z,9.23
2017-09-07T15:13:05.863Z,6.13
2017-09-07T15:15:33.302Z,10.93
2017-09-07T15:18:00.687Z,5.23
2017-09-07T15:20:28.095Z,7.93
2017-09-07T15:22:55.496Z,6.07
2017-09-07T15:25:22.890Z,5.50
2017-09-07T15:27:50.276Z,8.50
2017-09-07T15:30:17.735Z,4.30
2017-09-07T15:32:45.123Z,7.43
2017-09-07T15:35:12.514Z,3.83
2017-09-07T15:37:39.918Z,6.30
2017-09-07T15:40:07.310Z,1.80
2017-09-07T15:42:34.712Z,5.30
2017-09-07T15:45:02.128Z,6.33
2017-09-07T15:47:29.572Z,7.40
2017-09-07T15:49:56.971Z,4.67
2017-09-07T15:52:24.375Z,2.53
2017-09-07T15:54:51.765Z,5.20
2017-09-07T15:57:19.171Z,8.20
2017-09-07T15:59:46.569Z,3.47
2017-09-07T16:02:14.021Z,6.17
2017-09-07T16:04:41.418Z,5.37
2017-09-07T16:07:08.825Z,6.87
2017-09-07T16:09:36.292Z,4.00
2017-09-07T16:12:03.696Z,11.90
2017-09-07T16:14:31.079Z,6.50
2017-09-07T16:16:58.469Z,5.90
2017-09-07T16:19:25.859Z,7.60
2017-09-07T16:21:53.258Z,3.93
2017-09-07T16:24:20.647Z,8.57
2017-09-07T16:26:48.042Z,13.37
2017-09-07T16:29:15.474Z,8.47
2017-09-07T16:31:42.930Z,9.40
2017-09-07T16:34:10.322Z,8.23
2017-09-07T16:36:37.711Z,7.07
2017-09-07T16:39:05.102Z,6.30
2017-09-07T16:41:32.499Z,7.33
2017-09-07T16:43:59.907Z,12.83
2017-09-07T16:46:27.294Z,8.07
2017-09-07T16:48:54.692Z,9.80
2017-09-07T16:51:22.075Z,10.93
2017-09-07T16:53:49.470Z,7.67
2017-09-07T16:56:16.850Z,8.60
2017-09-07T16:58:44.275Z,6.63
2017-09-07T17:01:11.698Z,8.60
2017-09-07T17:03:39.095Z,5.63
2017-09-07T17:06:06.478Z,8.33
2017-09-07T17:08:35.875Z,3.43
2017-09-07T17:11:03.262Z,6.37
2017-09-07T17:13:30.659Z,9.80
2017-09-07T17:15:58.042Z,6.33
2017-09-07T17:18:25.542Z,8.27
2017-09-07T17:20:52.962Z,9.90
2017-09-07T17:23:20.350Z,3.83
2017-09-07T17:25:47.743Z,4.53
2017-09-07T17:28:16.196Z,11.77
2017-09-07T17:30:43.586Z,5.63
2017-09-07T17:33:10.978Z,6.93
2017-09-07T17:35:38.372Z,9.30
2017-09-07T17:38:05.754Z,3.93
2017-09-07T17:40:33.164Z,7.47
2017-09-07T17:43:00.546Z,6.60
2017-09-07T17:45:27.975Z,10.50
2017-09-07T17:47:55.368Z,5.00
2017-09-07T17:50:22.767Z,10.27
2017-09-07T17:52:50.151Z,8.83
2017-09-07T17:55:17.551Z,10.23
2017-09-07T17:57:44.931Z,8.23
2017-09-07T18:00:12.351Z,9.40
2017-09-07T18:02:39.767Z,6.33
2017-09-07T18:05:07.206Z,10.40
2017-09-07T18:07:34.595Z,16.03
2017-09-07T18:10:01.984Z,8.83
2017-09-07T18:12:29.378Z,7.70
2017-09-07T18:14:56.783Z,4.57
2017-09-07T18:17:24.175Z,4.47
2017-09-07T18:19:51.584Z,9.27
2017-09-07T18:22:18.979Z,6.27
2017-09-07T18:24:46.395Z,8.37
2017-09-07T18:27:13.791Z,11.37
2017-09-07T18:29:41.176Z,8.23
2017-09-07T18:32:10.468Z,14.90
2017-09-07T18:34:37.935Z,5.23
2017-09-07T18:37:05.326Z,9.30
2017-09-07T18:39:32.720Z,9.43
2017-09-07T18:42:00.128Z,14.50
2017-09-07T18:44:27.517Z,12.90
2017-09-07T18:46:54.903Z,9.70
2017-09-07T18:49:22.391Z,10.60
2017-09-07T18:51:49.799Z,12.40
2017-09-07T18:54:17.183Z,8.93
2017-09-07T18:56:44.633Z,11.83
2017-09-07T18:59:12.031Z,13.00
2017-09-07T19:01:39.419Z,10.40
2017-09-07T19:04:06.903Z,10.27
2017-09-07T19:06:34.302Z,13.90
2017-09-07T19:09:01.798Z,10.40
2017-09-07T19:11:29.204Z,12.33
2017-09-07T19:13:56.600Z,12.63
2017-09-07T19:16:24.084Z,13.37
2017-09-07T19:18:51.474Z,11.07
2017-09-07T19:21:18.868Z,13.90
2017-09-07T19:23:46.261Z,10.13
2017-09-07T19:26:13.646Z,10.60
2017-09-07T19:28:41.056Z,17.27
2017-09-07T19:31:08.450Z,16.80
2017-09-07T19:33:35.839Z,12.30
2017-09-07T19:36:03.222Z,11.67
2017-09-07T19:38:30.619Z,13.63
2017-09-07T19:40:58.007Z,26.47
2017-09-07T19:43:25.407Z,21.03
2017-09-07T19:45:52.794Z,12.73
2017-09-07T19:48:20.198Z,11.20
2017-09-07T19:50:47.862Z,13.40
2017-09-07T19:53:15.251Z,14.30
2017-09-07T19:55:42.733Z,12.77
2017-09-07T19:58:10.128Z,11.87
2017-09-07T20:00:37.547Z,11.63
2017-09-07T20:03:04.995Z,17.37
2017-09-07T20:05:32.395Z,23.07
2017-09-07T20:07:59.774Z,16.43
2017-09-07T20:10:27.175Z,11.13
2017-09-07T20:12:54.592Z,16.07
2017-09-07T20:15:21.970Z,11.63
2017-09-07T20:17:49.362Z,12.80
2017-09-07T20:20:16.766Z,20.67
2017-09-07T20:22:44.164Z,14.57
2017-09-07T20:28:01.926Z,14.13
2017-09-07T20:30:29.323Z,17.80
2017-09-07T20:32:57.724Z,18.27
2017-09-07T20:35:25.119Z,14.60
2017-09-07T20:37:52.511Z,10.63
2017-09-07T20:40:19.915Z,15.50
2017-09-07T20:42:47.311Z,16.10
2017-09-07T20:45:14.715Z,23.50
2017-09-07T20:47:42.103Z,13.07
2017-09-07T20:50:09.495Z,14.87
2017-09-07T20:52:36.907Z,11.00
2017-09-07T20:55:04.295Z,18.43
2017-09-07T20:57:31.723Z,9.60
2017-09-07T20:59:59.115Z,12.27
2017-09-07T21:02:26.511Z,16.83
2017-09-07T21:04:53.903Z,15.27
2017-09-07T21:07:21.330Z,22.03
2017-09-07T21:09:48.730Z,11.33
2017-09-07T21:12:16.122Z,18.73
2017-09-07T21:14:43.525Z,11.27
2017-09-07T21:17:10.910Z,11.77
2017-09-07T21:19:38.302Z,13.80
2017-09-07T21:22:05.706Z,11.40
2017-09-07T21:24:33.259Z,10.83
2017-09-07T21:27:00.654Z,13.83
2017-09-07T21:29:28.067Z,15.10
2017-09-07T21:31:55.467Z,15.20
2017-09-07T21:34:22.963Z,21.90
2017-09-07T21:36:50.394Z,16.20
2017-09-07T21:39:17.785Z,23.40
2017-09-07T21:41:45.174Z,14.23
2017-09-07T21:44:12.575Z,23.20
2017-09-07T21:46:39.972Z,19.93
2017-09-07T21:49:07.384Z,18.37
2017-09-07T21:51:34.758Z,14.73
2017-09-07T21:54:02.163Z,18.73
2017-09-07T21:56:29.551Z,18.40
2017-09-07T21:58:57.020Z,12.30
2017-09-07T22:01:24.411Z,22.93
2017-09-07T22:03:51.827Z,37.17
2017-09-07T22:06:19.219Z,19.80
2017-09-07T22:08:46.618Z,20.13
2017-09-07T22:11:14.015Z,25.10
2017-09-07T22:13:41.420Z,24.70
2017-09-07T22:16:08.803Z,29.47
2017-09-07T22:18:36.206Z,31.07
2017-09-07T22:21:03.619Z,28.90
2017-09-07T22:23:31.075Z,37.20
2017-09-07T22:25:58.503Z,24.83
2017-09-07T22:28:25.907Z,18.10
2017-09-07T22:30:53.306Z,26.43
2017-09-07T22:33:20.691Z,24.70
2017-09-07T22:35:48.091Z,28.83
2017-09-07T22:38:15.507Z,27.13
2017-09-07T22:40:42.971Z,29.90
2017-09-07T22:43:10.377Z,27.63
2017-09-07T22:45:37.774Z,33.07
2017-09-07T22:48:05.167Z,26.27
2017-09-07T22:50:32.597Z,32.83
2017-09-07T22:53:00.039Z,35.40
2017-09-07T22:55:27.451Z,25.27
2017-09-07T22:57:54.848Z,24.83
2017-09-07T23:00:22.251Z,25.30
2017-09-07T23:02:49.656Z,24.10
2017-09-07T23:05:17.051Z,17.50
2017-09-07T23:07:44.452Z,22.23
2017-09-07T23:10:11.874Z,28.13
2017-09-07T23:12:39.266Z,26.73
2017-09-07T23:15:06.674Z,36.03
2017-09-07T23:17:34.067Z,31.10
2017-09-07T23:20:01.475Z,30.50
2017-09-07T23:22:28.872Z,26.53
2017-09-07T23:24:56.263Z,21.80
2017-09-07T23:27:23.662Z,35.63
2017-09-07T23:29:51.068Z,25.43
2017-09-07T23:32:18.499Z,27.90
2017-09-07T23:34:45.897Z,36.33
2017-09-07T23:37:13.299Z,35.90
2017-09-07T23:39:40.794Z,28.70
2017-09-07T23:42:08.207Z,21.47
2017-09-07T23:44:35.602Z,22.80
2017-09-07T23:47:03.087Z,24.77
2017-09-07T23:49:30.483Z,28.10
2017-09-07T23:51:57.885Z,30.67
2017-09-07T23:54:25.347Z,31.10
2017-09-07T23:56:52.739Z,25.20
2017-09-07T23:59:20.149Z,35.03
